sensor_id;sensor_type;location;lat;lon;timestamp;temperature;humidity
39675;DHT22;27790;50.840;4.386;2024-03-23T00:55:40;10.50;99.90
39675;DHT22;27790;50.840;4.386;2024-03-23T00:58:05;10.50;99.90
39675;DHT22;27790;50.840;4.386;2024-03-23T01:00:31;10.50;99.90
39675;DHT22;27790;50.840;4.386;2024-03-23T01:02:57;10.50;99.90
39675;DHT22;27790;50.840;4.386;2024-03-23T01:05:22;10.50;99.90
39675;DHT22;27790;50.840;4.386;2024-03-23T01:07:48;10.50;99.90
39675;DHT22;27790;50.840;4.386;2024-03-23T01:10:13;10.50;99.90
39675;DHT22;27790;50.840;4.386;2024-03-23T01:12:39;10.50;99.90
39675;DHT22;27790;50.840;4.386;2024-03-23T01:15:05;10.50;99.90
39675;DHT22;27790;50.840;4.386;2024-03-23T01:17:30;10.50;99.90
39675;DHT22;27790;50.840;4.386;2024-03-23T01:19:56;10.50;99.90
39675;DHT22;27790;50.840;4.386;2024-03-23T01:22:21;10.40;99.90
39675;DHT22;27790;50.840;4.386;2024-03-23T01:24:47;10.30;99.90
39675;DHT22;27790;50.840;4.386;2024-03-23T01:27:12;10.20;99.90
39675;DHT22;27790;50.840;4.386;2024-03-23T01:29:38;10.20;99.90
39675;DHT22;27790;50.840;4.386;2024-03-23T01:32:04;10.10;99.90
39675;DHT22;27790;50.840;4.386;2024-03-23T01:34:30;10.20;99.90
39675;DHT22;27790;50.840;4.386;2024-03-23T01:36:56;10.30;99.90
39675;DHT22;27790;50.840;4.386;2024-03-23T01:39:21;10.30;99.90
39675;DHT22;27790;50.840;4.386;2024-03-23T01:41:47;10.30;99.90
39675;DHT22;27790;50.840;4.386;2024-03-23T01:44:12;10.30;99.90
39675;DHT22;27790;50.840;4.386;2024-03-23T01:46:39;10.20;99.90
39675;DHT22;27790;50.840;4.386;2024-03-23T01:49:06;10.20;99.90
39675;DHT22;27790;50.840;4.386;2024-03-23T01:51:33;10.20;99.90
39675;DHT22;27790;50.840;4.386;2024-03-23T01:54:00;10.20;99.90
39675;DHT22;27790;50.840;4.386;2024-03-23T01:56:31;10.20;99.90
39675;DHT22;27790;50.840;4.386;2024-03-23T01:58:59;10.10;99.90
39675;DHT22;27790;50.840;4.386;2024-03-23T02:01:24;10.10;99.90
39675;DHT22;27790;50.840;4.386;2024-03-23T02:03:50;10.10;99.90
39675;DHT22;27790;50.840;4.386;2024-03-23T02:06:16;10.20;99.90
39675;DHT22;27790;50.840;4.386;2024-03-23T02:08:41;10.20;99.90
39675;DHT22;27790;50.840;4.386;2024-03-23T02:11:08;10.20;99.90
39675;DHT22;27790;50.840;4.386;2024-03-23T02:13:33;10.20;99.90
39675;DHT22;27790;50.840;4.386;2024-03-23T02:15:59;10.20;99.90
39675;DHT22;27790;50.840;4.386;2024-03-23T02:18:24;10.20;99.90
39675;DHT22;27790;50.840;4.386;2024-03-23T02:20:50;10.20;99.90
39675;DHT22;27790;50.840;4.386;2024-03-23T02:23:16;10.10;99.90
39675;DHT22;27790;50.840;4.386;2024-03-23T02:25:43;10.10;99.90
39675;DHT22;27790;50.840;4.386;2024-03-23T02:28:09;10.20;99.90
39675;DHT22;27790;50.840;4.386;2024-03-23T02:30:35;10.20;99.90
39675;DHT22;27790;50.840;4.386;2024-03-23T02:33:01;10.20;99.90
39675;DHT22;27790;50.840;4.386;2024-03-23T02:35:26;10.20;99.90
39675;DHT22;27790;50.840;4.386;2024-03-23T02:37:52;10.10;99.90
39675;DHT22;27790;50.840;4.386;2024-03-23T02:40:20;10.20;99.90
39675;DHT22;27790;50.840;4.386;2024-03-23T02:42:46;10.20;99.90
39675;DHT22;27790;50.840;4.386;2024-03-23T02:45:11;10.30;99.90
39675;DHT22;27790;50.840;4.386;2024-03-23T02:47:37;10.30;99.90
39675;DHT22;27790;50.840;4.386;2024-03-23T02:50:03;10.30;99.90
39675;DHT22;27790;50.840;4.386;2024-03-23T02:52:29;10.20;99.90
39675;DHT22;27790;50.840;4.386;2024-03-23T02:54:55;10.30;99.90
39675;DHT22;27790;50.840;4.386;2024-03-23T02:57:20;10.20;99.90
39675;DHT22;27790;50.840;4.386;2024-03-23T02:59:46;10.20;99.90
39675;DHT22;27790;50.840;4.386;2024-03-23T03:02:13;10.20;99.90
39675;DHT22;27790;50.840;4.386;2024-03-23T03:04:39;10.20;99.90
39675;DHT22;27790;50.840;4.386;2024-03-23T03:07:04;10.10;99.90
39675;DHT22;27790;50.840;4.386;2024-03-23T03:09:30;10.10;99.90
39675;DHT22;27790;50.840;4.386;2024-03-23T03:11:55;10.10;99.90
39675;DHT22;27790;50.840;4.386;2024-03-23T03:14:21;10.10;99.90
39675;DHT22;27790;50.840;4.386;2024-03-23T03:16:46;10.20;99.90
39675;DHT22;27790;50.840;4.386;2024-03-23T03:19:12;10.20;99.90
39675;DHT22;27790;50.840;4.386;2024-03-23T03:21:38;10.20;99.90
39675;DHT22;27790;50.840;4.386;2024-03-23T03:24:05;10.20;99.90
39675;DHT22;27790;50.840;4.386;2024-03-23T03:26:32;10.20;99.90
39675;DHT22;27790;50.840;4.386;2024-03-23T03:28:57;10.20;99.90
39675;DHT22;27790;50.840;4.386;2024-03-23T03:33:52;10.20;99.90
39675;DHT22;27790;50.840;4.386;2024-03-23T03:36:18;10.10;99.90
39675;DHT22;27790;50.840;4.386;2024-03-23T03:38:44;10.10;99.90
39675;DHT22;27790;50.840;4.386;2024-03-23T03:41:10;10.10;99.90
39675;DHT22;27790;50.840;4.386;2024-03-23T03:43:35;10.10;99.90
39675;DHT22;27790;50.840;4.386;2024-03-23T03:46:01;10.10;99.90
39675;DHT22;27790;50.840;4.386;2024-03-23T03:48:28;10.00;99.90
39675;DHT22;27790;50.840;4.386;2024-03-23T03:50:54;9.90;99.90
39675;DHT22;27790;50.840;4.386;2024-03-23T03:53:20;9.80;99.90
39675;DHT22;27790;50.840;4.386;2024-03-23T03:55:45;9.80;99.90
39675;DHT22;27790;50.840;4.386;2024-03-23T03:58:11;9.70;99.90
39675;DHT22;27790;50.840;4.386;2024-03-23T04:00:36;9.60;99.90
39675;DHT22;27790;50.840;4.386;2024-03-23T04:03:02;9.60;99.90
39675;DHT22;27790;50.840;4.386;2024-03-23T04:05:28;9.70;99.90
39675;DHT22;27790;50.840;4.386;2024-03-23T04:07:53;9.70;99.90
39675;DHT22;27790;50.840;4.386;2024-03-23T04:10:19;9.80;99.90
39675;DHT22;27790;50.840;4.386;2024-03-23T04:12:45;9.80;99.90
39675;DHT22;27790;50.840;4.386;2024-03-23T04:15:11;9.90;99.90
39675;DHT22;27790;50.840;4.386;2024-03-23T04:17:37;9.90;99.90
39675;DHT22;27790;50.840;4.386;2024-03-23T04:20:03;9.90;99.90
39675;DHT22;27790;50.840;4.386;2024-03-23T04:22:33;9.80;99.90
39675;DHT22;27790;50.840;4.386;2024-03-23T04:24:59;9.70;99.90
39675;DHT22;27790;50.840;4.386;2024-03-23T04:27:24;9.80;99.90
39675;DHT22;27790;50.840;4.386;2024-03-23T04:29:50;9.80;99.90
39675;DHT22;27790;50.840;4.386;2024-03-23T04:32:16;9.70;99.90
39675;DHT22;27790;50.840;4.386;2024-03-23T04:34:42;9.70;99.90
39675;DHT22;27790;50.840;4.386;2024-03-23T04:37:09;9.70;99.90
39675;DHT22;27790;50.840;4.386;2024-03-23T04:39:36;9.80;99.90
39675;DHT22;27790;50.840;4.386;2024-03-23T04:42:02;9.80;99.90
39675;DHT22;27790;50.840;4.386;2024-03-23T04:44:28;9.80;99.90
39675;DHT22;27790;50.840;4.386;2024-03-23T04:46:54;9.80;99.90
39675;DHT22;27790;50.840;4.386;2024-03-23T04:49:19;9.80;99.90
39675;DHT22;27790;50.840;4.386;2024-03-23T04:51:45;9.90;99.90
39675;DHT22;27790;50.840;4.386;2024-03-23T04:54:15;9.80;99.90
39675;DHT22;27790;50.840;4.386;2024-03-23T04:56:40;9.60;99.90
39675;DHT22;27790;50.840;4.386;2024-03-23T04:59:06;9.50;99.90
39675;DHT22;27790;50.840;4.386;2024-03-23T05:04:02;9.30;99.90
39675;DHT22;27790;50.840;4.386;2024-03-23T05:06:27;9.20;99.90
39675;DHT22;27790;50.840;4.386;2024-03-23T05:08:53;9.10;99.90
39675;DHT22;27790;50.840;4.386;2024-03-23T05:11:18;9.10;99.90
39675;DHT22;27790;50.840;4.386;2024-03-23T05:13:45;9.10;99.90
39675;DHT22;27790;50.840;4.386;2024-03-23T05:16:11;9.10;99.90
39675;DHT22;27790;50.840;4.386;2024-03-23T05:18:37;9.10;99.90
39675;DHT22;27790;50.840;4.386;2024-03-23T05:21:03;9.10;99.90
39675;DHT22;27790;50.840;4.386;2024-03-23T05:23:29;9.20;99.90
39675;DHT22;27790;50.840;4.386;2024-03-23T05:25:55;9.20;99.90
39675;DHT22;27790;50.840;4.386;2024-03-23T05:28:23;9.20;99.90
39675;DHT22;27790;50.840;4.386;2024-03-23T05:30:55;9.20;99.90
39675;DHT22;27790;50.840;4.386;2024-03-23T05:33:22;9.30;99.90
39675;DHT22;27790;50.840;4.386;2024-03-23T05:35:56;9.30;99.90
39675;DHT22;27790;50.840;4.386;2024-03-23T05:38:22;9.20;99.90
39675;DHT22;27790;50.840;4.386;2024-03-23T05:40:58;9.10;99.90
39675;DHT22;27790;50.840;4.386;2024-03-23T05:43:24;9.10;99.90
39675;DHT22;27790;50.840;4.386;2024-03-23T05:45:57;9.10;99.90
39675;DHT22;27790;50.840;4.386;2024-03-23T05:48:23;9.10;99.90
39675;DHT22;27790;50.840;4.386;2024-03-23T05:50:49;9.20;99.90
39675;DHT22;27790;50.840;4.386;2024-03-23T05:53:16;9.20;99.90
39675;DHT22;27790;50.840;4.386;2024-03-23T05:55:42;9.20;99.90
39675;DHT22;27790;50.840;4.386;2024-03-23T05:58:07;9.20;99.90
39675;DHT22;27790;50.840;4.386;2024-03-23T06:00:33;9.10;99.90
39675;DHT22;27790;50.840;4.386;2024-03-23T06:02:58;9.00;99.90
39675;DHT22;27790;50.840;4.386;2024-03-23T06:05:24;9.10;99.90
39675;DHT22;27790;50.840;4.386;2024-03-23T06:07:49;9.20;99.90
39675;DHT22;27790;50.840;4.386;2024-03-23T06:10:15;9.20;99.90
39675;DHT22;27790;50.840;4.386;2024-03-23T06:12:41;9.20;99.90
39675;DHT22;27790;50.840;4.386;2024-03-23T06:15:07;9.30;99.90
39675;DHT22;27790;50.840;4.386;2024-03-23T06:17:36;9.40;99.90
39675;DHT22;27790;50.840;4.386;2024-03-23T06:20:02;9.40;99.90
39675;DHT22;27790;50.840;4.386;2024-03-23T06:22:27;9.50;99.90
39675;DHT22;27790;50.840;4.386;2024-03-23T06:24:53;9.50;99.90
39675;DHT22;27790;50.840;4.386;2024-03-23T06:27:18;9.60;99.90
39675;DHT22;27790;50.840;4.386;2024-03-23T06:29:44;9.60;99.90
39675;DHT22;27790;50.840;4.386;2024-03-23T06:32:09;9.70;99.90
39675;DHT22;27790;50.840;4.386;2024-03-23T06:34:35;9.70;99.90
39675;DHT22;27790;50.840;4.386;2024-03-23T06:37:00;9.70;99.90
39675;DHT22;27790;50.840;4.386;2024-03-23T06:39:26;9.80;99.90
39675;DHT22;27790;50.840;4.386;2024-03-23T06:41:52;9.80;99.90
39675;DHT22;27790;50.840;4.386;2024-03-23T06:44:19;9.70;99.90
39675;DHT22;27790;50.840;4.386;2024-03-23T06:46:45;9.80;99.90
39675;DHT22;27790;50.840;4.386;2024-03-23T06:49:11;9.90;99.90
39675;DHT22;27790;50.840;4.386;2024-03-23T06:51:36;9.90;99.90
39675;DHT22;27790;50.840;4.386;2024-03-23T06:54:03;9.90;99.90
39675;DHT22;27790;50.840;4.386;2024-03-23T06:56:29;9.80;99.90
39675;DHT22;27790;50.840;4.386;2024-03-23T06:58:55;9.80;99.90
39675;DHT22;27790;50.840;4.386;2024-03-23T07:01:21;9.70;99.90
39675;DHT22;27790;50.840;4.386;2024-03-23T07:03:46;9.80;99.90
39675;DHT22;27790;50.840;4.386;2024-03-23T07:06:12;9.80;99.90
39675;DHT22;27790;50.840;4.386;2024-03-23T07:08:37;9.70;99.90
39675;DHT22;27790;50.840;4.386;2024-03-23T07:11:03;9.40;99.90
39675;DHT22;27790;50.840;4.386;2024-03-23T07:13:30;8.80;99.90
39675;DHT22;27790;50.840;4.386;2024-03-23T07:15:56;8.40;99.90
39675;DHT22;27790;50.840;4.386;2024-03-23T07:18:22;8.10;99.90
39675;DHT22;27790;50.840;4.386;2024-03-23T07:20:58;8.10;99.90
39675;DHT22;27790;50.840;4.386;2024-03-23T07:23:24;8.10;99.90
39675;DHT22;27790;50.840;4.386;2024-03-23T07:26:00;8.10;99.90
39675;DHT22;27790;50.840;4.386;2024-03-23T07:28:25;8.10;99.90
39675;DHT22;27790;50.840;4.386;2024-03-23T07:33:31;8.50;99.90
39675;DHT22;27790;50.840;4.386;2024-03-23T07:35:57;9.20;99.90
39675;DHT22;27790;50.840;4.386;2024-03-23T07:38:23;9.70;99.90
39675;DHT22;27790;50.840;4.386;2024-03-23T07:40:49;10.30;99.90
39675;DHT22;27790;50.840;4.386;2024-03-23T07:43:21;10.60;99.90
39675;DHT22;27790;50.840;4.386;2024-03-23T07:45:53;11.20;99.90
39675;DHT22;27790;50.840;4.386;2024-03-23T07:48:21;11.60;99.90
39675;DHT22;27790;50.840;4.386;2024-03-23T07:51:20;11.90;99.90
39675;DHT22;27790;50.840;4.386;2024-03-23T07:53:45;12.30;99.40
39675;DHT22;27790;50.840;4.386;2024-03-23T07:56:15;12.50;98.90
39675;DHT22;27790;50.840;4.386;2024-03-23T07:58:41;12.90;99.10
39675;DHT22;27790;50.840;4.386;2024-03-23T08:01:08;12.80;98.10
39675;DHT22;27790;50.840;4.386;2024-03-23T08:03:35;12.60;97.90
39675;DHT22;27790;50.840;4.386;2024-03-23T08:08:32;12.90;97.70
39675;DHT22;27790;50.840;4.386;2024-03-23T08:10:58;13.00;97.20
39675;DHT22;27790;50.840;4.386;2024-03-23T08:13:23;12.60;97.30
39675;DHT22;27790;50.840;4.386;2024-03-23T08:15:49;12.30;97.50
39675;DHT22;27790;50.840;4.386;2024-03-23T08:18:14;12.10;98.10
39675;DHT22;27790;50.840;4.386;2024-03-23T08:20:41;11.90;98.40
39675;DHT22;27790;50.840;4.386;2024-03-23T08:23:07;12.10;98.40
39675;DHT22;27790;50.840;4.386;2024-03-23T08:25:33;12.70;98.00
39675;DHT22;27790;50.840;4.386;2024-03-23T08:27:59;13.60;97.30
39675;DHT22;27790;50.840;4.386;2024-03-23T08:30:25;13.20;96.10
39675;DHT22;27790;50.840;4.386;2024-03-23T08:32:50;12.80;96.40
39675;DHT22;27790;50.840;4.386;2024-03-23T08:35:16;12.50;97.20
39675;DHT22;27790;50.840;4.386;2024-03-23T08:37:41;12.30;97.20
39675;DHT22;27790;50.840;4.386;2024-03-23T08:40:07;12.20;97.40
39675;DHT22;27790;50.840;4.386;2024-03-23T08:42:34;12.00;97.70
39675;DHT22;27790;50.840;4.386;2024-03-23T08:44:59;11.70;97.80
39675;DHT22;27790;50.840;4.386;2024-03-23T08:47:25;11.60;98.20
39675;DHT22;27790;50.840;4.386;2024-03-23T08:49:51;11.40;97.60
39675;DHT22;27790;50.840;4.386;2024-03-23T08:52:16;11.10;97.90
39675;DHT22;27790;50.840;4.386;2024-03-23T08:54:42;11.00;98.60
39675;DHT22;27790;50.840;4.386;2024-03-23T08:57:08;11.10;98.90
39675;DHT22;27790;50.840;4.386;2024-03-23T08:59:33;11.80;98.40
39675;DHT22;27790;50.840;4.386;2024-03-23T09:02:00;11.90;96.80
39675;DHT22;27790;50.840;4.386;2024-03-23T09:04:25;12.20;96.60
39675;DHT22;27790;50.840;4.386;2024-03-23T09:06:51;12.80;95.20
39675;DHT22;27790;50.840;4.386;2024-03-23T09:09:17;12.90;95.90
39675;DHT22;27790;50.840;4.386;2024-03-23T09:11:43;13.00;95.30
39675;DHT22;27790;50.840;4.386;2024-03-23T09:14:08;13.10;95.20
39675;DHT22;27790;50.840;4.386;2024-03-23T09:16:34;13.20;94.80
39675;DHT22;27790;50.840;4.386;2024-03-23T09:19:00;12.90;93.90
39675;DHT22;27790;50.840;4.386;2024-03-23T09:21:26;13.10;94.40
39675;DHT22;27790;50.840;4.386;2024-03-23T09:23:51;13.30;94.60
39675;DHT22;27790;50.840;4.386;2024-03-23T09:26:17;12.90;93.60
39675;DHT22;27790;50.840;4.386;2024-03-23T09:28:42;12.70;94.60
39675;DHT22;27790;50.840;4.386;2024-03-23T09:31:08;12.50;94.60
39675;DHT22;27790;50.840;4.386;2024-03-23T09:33:36;12.30;94.50
39675;DHT22;27790;50.840;4.386;2024-03-23T09:36:06;12.40;95.10
39675;DHT22;27790;50.840;4.386;2024-03-23T09:38:32;12.20;93.90
39675;DHT22;27790;50.840;4.386;2024-03-23T09:40:58;11.90;94.40
39675;DHT22;27790;50.840;4.386;2024-03-23T09:43:24;11.80;94.20
39675;DHT22;27790;50.840;4.386;2024-03-23T09:45:50;11.80;95.20
39675;DHT22;27790;50.840;4.386;2024-03-23T09:48:16;11.90;94.90
39675;DHT22;27790;50.840;4.386;2024-03-23T09:50:44;11.90;94.30
39675;DHT22;27790;50.840;4.386;2024-03-23T09:53:11;11.90;94.80
39675;DHT22;27790;50.840;4.386;2024-03-23T09:55:37;12.00;94.30
39675;DHT22;27790;50.840;4.386;2024-03-23T09:58:04;11.80;94.00
39675;DHT22;27790;50.840;4.386;2024-03-23T10:00:33;11.70;93.50
39675;DHT22;27790;50.840;4.386;2024-03-23T10:02:59;11.60;93.70
39675;DHT22;27790;50.840;4.386;2024-03-23T10:05:28;11.50;94.20
39675;DHT22;27790;50.840;4.386;2024-03-23T10:07:53;11.50;94.00
39675;DHT22;27790;50.840;4.386;2024-03-23T10:10:19;11.50;93.00
39675;DHT22;27790;50.840;4.386;2024-03-23T10:12:47;11.70;93.60
39675;DHT22;27790;50.840;4.386;2024-03-23T10:15:25;11.70;93.20
39675;DHT22;27790;50.840;4.386;2024-03-23T10:17:51;11.50;93.70
39675;DHT22;27790;50.840;4.386;2024-03-23T10:20:21;11.70;93.10
39675;DHT22;27790;50.840;4.386;2024-03-23T10:22:50;11.80;93.80
39675;DHT22;27790;50.840;4.386;2024-03-23T10:25:22;11.60;92.60
39675;DHT22;27790;50.840;4.386;2024-03-23T10:28:00;11.70;93.70
39675;DHT22;27790;50.840;4.386;2024-03-23T10:30:26;12.20;94.30
39675;DHT22;27790;50.840;4.386;2024-03-23T10:33:12;12.40;92.60
39675;DHT22;27790;50.840;4.386;2024-03-23T10:35:39;12.50;92.50
39675;DHT22;27790;50.840;4.386;2024-03-23T10:38:05;12.50;92.70
39675;DHT22;27790;50.840;4.386;2024-03-23T10:40:34;12.50;92.80
39675;DHT22;27790;50.840;4.386;2024-03-23T10:43:00;12.40;93.80
39675;DHT22;27790;50.840;4.386;2024-03-23T10:45:26;12.50;93.50
39675;DHT22;27790;50.840;4.386;2024-03-23T10:47:51;12.60;93.30
39675;DHT22;27790;50.840;4.386;2024-03-23T10:50:17;12.60;92.60
39675;DHT22;27790;50.840;4.386;2024-03-23T10:52:46;12.40;92.30
39675;DHT22;27790;50.840;4.386;2024-03-23T10:55:14;12.60;92.70
39675;DHT22;27790;50.840;4.386;2024-03-23T10:57:53;12.70;91.80
39675;DHT22;27790;50.840;4.386;2024-03-23T11:00:19;12.70;91.30
39675;DHT22;27790;50.840;4.386;2024-03-23T11:02:47;12.60;91.60
39675;DHT22;27790;50.840;4.386;2024-03-23T11:05:28;12.40;91.70
39675;DHT22;27790;50.840;4.386;2024-03-23T11:07:55;12.50;91.00
39675;DHT22;27790;50.840;4.386;2024-03-23T11:10:25;12.70;91.60
39675;DHT22;27790;50.840;4.386;2024-03-23T11:12:52;12.90;91.30
39675;DHT22;27790;50.840;4.386;2024-03-23T11:15:18;12.90;90.40
39675;DHT22;27790;50.840;4.386;2024-03-23T11:18:05;12.80;90.30
39675;DHT22;27790;50.840;4.386;2024-03-23T11:20:36;12.40;90.40
39675;DHT22;27790;50.840;4.386;2024-03-23T11:23:02;12.40;90.10
39675;DHT22;27790;50.840;4.386;2024-03-23T11:25:28;12.40;89.10
39675;DHT22;27790;50.840;4.386;2024-03-23T11:28:19;12.30;90.20
39675;DHT22;27790;50.840;4.386;2024-03-23T11:30:44;12.30;89.10
39675;DHT22;27790;50.840;4.386;2024-03-23T11:33:10;12.20;90.20
39675;DHT22;27790;50.840;4.386;2024-03-23T11:35:39;12.20;90.40
39675;DHT22;27790;50.840;4.386;2024-03-23T11:38:12;12.40;90.60
39675;DHT22;27790;50.840;4.386;2024-03-23T11:40:42;12.40;90.30
39675;DHT22;27790;50.840;4.386;2024-03-23T11:43:12;11.90;90.40
39675;DHT22;27790;50.840;4.386;2024-03-23T11:45:40;11.60;91.20
39675;DHT22;27790;50.840;4.386;2024-03-23T11:48:11;11.50;91.50
39675;DHT22;27790;50.840;4.386;2024-03-23T11:50:42;11.40;91.20
39675;DHT22;27790;50.840;4.386;2024-03-23T11:53:19;11.20;91.50
39675;DHT22;27790;50.840;4.386;2024-03-23T11:58:13;11.20;92.00
39675;DHT22;27790;50.840;4.386;2024-03-23T12:00:39;11.10;92.60
39675;DHT22;27790;50.840;4.386;2024-03-23T12:03:05;11.10;91.80
39675;DHT22;27790;50.840;4.386;2024-03-23T12:05:32;11.10;92.50
39675;DHT22;27790;50.840;4.386;2024-03-23T12:08:17;11.20;92.20
39675;DHT22;27790;50.840;4.386;2024-03-23T12:10:53;11.20;91.90
39675;DHT22;27790;50.840;4.386;2024-03-23T12:13:29;11.20;91.90
39675;DHT22;27790;50.840;4.386;2024-03-23T12:15:54;11.50;91.80
39675;DHT22;27790;50.840;4.386;2024-03-23T12:18:23;11.50;91.10
39675;DHT22;27790;50.840;4.386;2024-03-23T12:20:50;11.50;91.30
39675;DHT22;27790;50.840;4.386;2024-03-23T12:23:15;11.60;90.90
39675;DHT22;27790;50.840;4.386;2024-03-23T12:25:41;11.50;90.60
39675;DHT22;27790;50.840;4.386;2024-03-23T12:28:07;11.20;91.50
39675;DHT22;27790;50.840;4.386;2024-03-23T12:30:39;10.90;90.50
39675;DHT22;27790;50.840;4.386;2024-03-23T12:33:05;10.80;90.20
39675;DHT22;27790;50.840;4.386;2024-03-23T12:35:31;10.70;91.00
39675;DHT22;27790;50.840;4.386;2024-03-23T12:37:57;10.70;91.40
39675;DHT22;27790;50.840;4.386;2024-03-23T12:40:23;10.80;92.30
39675;DHT22;27790;50.840;4.386;2024-03-23T12:42:48;11.00;92.20
39675;DHT22;27790;50.840;4.386;2024-03-23T12:45:14;11.20;92.60
39675;DHT22;27790;50.840;4.386;2024-03-23T12:47:39;11.40;92.70
39675;DHT22;27790;50.840;4.386;2024-03-23T12:50:05;11.40;92.30
39675;DHT22;27790;50.840;4.386;2024-03-23T12:52:32;11.40;92.50
39675;DHT22;27790;50.840;4.386;2024-03-23T12:54:58;11.60;92.20
39675;DHT22;27790;50.840;4.386;2024-03-23T12:57:24;11.90;92.00
39675;DHT22;27790;50.840;4.386;2024-03-23T12:59:53;12.00;92.00
39675;DHT22;27790;50.840;4.386;2024-03-23T13:02:22;12.10;90.00
39675;DHT22;27790;50.840;4.386;2024-03-23T13:04:53;12.10;89.50
39675;DHT22;27790;50.840;4.386;2024-03-23T13:07:20;12.20;89.20
39675;DHT22;27790;50.840;4.386;2024-03-23T13:09:45;12.40;84.50
39675;DHT22;27790;50.840;4.386;2024-03-23T13:12:11;12.40;85.50
39675;DHT22;27790;50.840;4.386;2024-03-23T13:14:40;12.70;86.50
39675;DHT22;27790;50.840;4.386;2024-03-23T13:17:06;13.00;85.70
39675;DHT22;27790;50.840;4.386;2024-03-23T13:19:33;13.20;84.60
39675;DHT22;27790;50.840;4.386;2024-03-23T13:22:00;13.30;84.50
39675;DHT22;27790;50.840;4.386;2024-03-23T13:24:27;13.20;83.90
39675;DHT22;27790;50.840;4.386;2024-03-23T13:26:53;13.10;84.90
39675;DHT22;27790;50.840;4.386;2024-03-23T13:29:19;12.90;86.70
39675;DHT22;27790;50.840;4.386;2024-03-23T13:31:49;12.90;86.00
39675;DHT22;27790;50.840;4.386;2024-03-23T13:34:15;13.00;85.90
39675;DHT22;27790;50.840;4.386;2024-03-23T13:36:41;13.20;84.40
39675;DHT22;27790;50.840;4.386;2024-03-23T13:39:08;13.00;85.60
39675;DHT22;27790;50.840;4.386;2024-03-23T13:41:40;12.80;84.80
39675;DHT22;27790;50.840;4.386;2024-03-23T13:44:11;12.60;86.70
39675;DHT22;27790;50.840;4.386;2024-03-23T13:46:41;12.80;86.90
39675;DHT22;27790;50.840;4.386;2024-03-23T13:51:46;12.60;86.10
39675;DHT22;27790;50.840;4.386;2024-03-23T13:54:12;12.80;87.10
39675;DHT22;27790;50.840;4.386;2024-03-23T13:56:38;13.00;86.60
39675;DHT22;27790;50.840;4.386;2024-03-23T13:59:03;13.10;86.60
39675;DHT22;27790;50.840;4.386;2024-03-23T14:01:29;12.90;87.70
39675;DHT22;27790;50.840;4.386;2024-03-23T14:03:55;12.90;87.30
39675;DHT22;27790;50.840;4.386;2024-03-23T14:06:21;12.90;88.40
39675;DHT22;27790;50.840;4.386;2024-03-23T14:08:46;13.00;88.10
39675;DHT22;27790;50.840;4.386;2024-03-23T14:11:14;12.90;88.60
39675;DHT22;27790;50.840;4.386;2024-03-23T14:13:40;12.80;88.90
39675;DHT22;27790;50.840;4.386;2024-03-23T14:16:06;12.70;89.40
39675;DHT22;27790;50.840;4.386;2024-03-23T14:18:31;12.70;88.00
39675;DHT22;27790;50.840;4.386;2024-03-23T14:20:59;12.60;88.40
39675;DHT22;27790;50.840;4.386;2024-03-23T14:23:29;12.80;88.00
39675;DHT22;27790;50.840;4.386;2024-03-23T14:25:55;12.60;86.00
39675;DHT22;27790;50.840;4.386;2024-03-23T14:28:25;12.40;88.00
39675;DHT22;27790;50.840;4.386;2024-03-23T14:30:51;12.20;88.10
39675;DHT22;27790;50.840;4.386;2024-03-23T14:33:17;12.10;88.90
39675;DHT22;27790;50.840;4.386;2024-03-23T14:35:43;12.10;88.80
39675;DHT22;27790;50.840;4.386;2024-03-23T14:38:09;12.00;87.70
39675;DHT22;27790;50.840;4.386;2024-03-23T14:40:35;12.00;88.50
39675;DHT22;27790;50.840;4.386;2024-03-23T14:43:01;11.80;89.60
39675;DHT22;27790;50.840;4.386;2024-03-23T14:45:27;11.80;89.30
39675;DHT22;27790;50.840;4.386;2024-03-23T14:47:53;11.80;87.90
39675;DHT22;27790;50.840;4.386;2024-03-23T14:50:19;11.90;88.40
39675;DHT22;27790;50.840;4.386;2024-03-23T14:52:45;12.20;88.80
39675;DHT22;27790;50.840;4.386;2024-03-23T14:55:11;12.30;87.20
39675;DHT22;27790;50.840;4.386;2024-03-23T14:57:37;12.20;88.50
39675;DHT22;27790;50.840;4.386;2024-03-23T15:00:08;12.20;87.80
39675;DHT22;27790;50.840;4.386;2024-03-23T15:02:36;12.30;87.40
39675;DHT22;27790;50.840;4.386;2024-03-23T15:05:02;12.30;87.40
39675;DHT22;27790;50.840;4.386;2024-03-23T15:07:30;12.30;87.80
39675;DHT22;27790;50.840;4.386;2024-03-23T15:09:55;12.40;88.50
39675;DHT22;27790;50.840;4.386;2024-03-23T15:12:21;12.60;88.30
39675;DHT22;27790;50.840;4.386;2024-03-23T15:14:47;12.70;88.60
39675;DHT22;27790;50.840;4.386;2024-03-23T15:17:13;12.60;88.90
39675;DHT22;27790;50.840;4.386;2024-03-23T15:19:38;12.50;89.00
39675;DHT22;27790;50.840;4.386;2024-03-23T15:22:04;12.40;88.70
39675;DHT22;27790;50.840;4.386;2024-03-23T15:24:29;12.40;88.70
39675;DHT22;27790;50.840;4.386;2024-03-23T15:26:56;12.30;89.20
39675;DHT22;27790;50.840;4.386;2024-03-23T15:29:22;12.20;89.30
39675;DHT22;27790;50.840;4.386;2024-03-23T15:31:48;12.30;89.20
39675;DHT22;27790;50.840;4.386;2024-03-23T15:34:18;12.40;88.70
39675;DHT22;27790;50.840;4.386;2024-03-23T15:36:44;12.40;90.00
39675;DHT22;27790;50.840;4.386;2024-03-23T15:39:10;12.40;88.70
39675;DHT22;27790;50.840;4.386;2024-03-23T15:41:36;12.60;87.70
39675;DHT22;27790;50.840;4.386;2024-03-23T15:44:02;12.50;87.70
39675;DHT22;27790;50.840;4.386;2024-03-23T15:46:28;12.60;88.60
39675;DHT22;27790;50.840;4.386;2024-03-23T15:48:53;12.60;89.10
39675;DHT22;27790;50.840;4.386;2024-03-23T15:51:20;12.70;88.00
39675;DHT22;27790;50.840;4.386;2024-03-23T15:53:46;12.60;89.30
39675;DHT22;27790;50.840;4.386;2024-03-23T15:56:12;12.60;88.30
39675;DHT22;27790;50.840;4.386;2024-03-23T15:58:38;12.60;88.70
39675;DHT22;27790;50.840;4.386;2024-03-23T16:01:08;12.60;88.90
39675;DHT22;27790;50.840;4.386;2024-03-23T16:03:37;12.60;88.60
39675;DHT22;27790;50.840;4.386;2024-03-23T16:06:07;12.70;87.90
39675;DHT22;27790;50.840;4.386;2024-03-23T16:08:33;12.60;87.00
39675;DHT22;27790;50.840;4.386;2024-03-23T16:11:06;12.60;86.20
39675;DHT22;27790;50.840;4.386;2024-03-23T16:13:32;12.40;84.40
39675;DHT22;27790;50.840;4.386;2024-03-23T16:15:59;12.20;85.50
39675;DHT22;27790;50.840;4.386;2024-03-23T16:18:25;12.20;86.00
39675;DHT22;27790;50.840;4.386;2024-03-23T16:20:54;12.20;86.80
39675;DHT22;27790;50.840;4.386;2024-03-23T16:23:20;11.90;85.70
39675;DHT22;27790;50.840;4.386;2024-03-23T16:25:49;12.00;84.00
39675;DHT22;27790;50.840;4.386;2024-03-23T16:28:35;12.10;84.80
39675;DHT22;27790;50.840;4.386;2024-03-23T16:31:02;12.20;84.60
39675;DHT22;27790;50.840;4.386;2024-03-23T16:33:29;12.10;83.70
39675;DHT22;27790;50.840;4.386;2024-03-23T16:36:05;12.00;84.60
39675;DHT22;27790;50.840;4.386;2024-03-23T16:38:33;11.90;84.90
39675;DHT22;27790;50.840;4.386;2024-03-23T16:41:02;11.90;84.10
39675;DHT22;27790;50.840;4.386;2024-03-23T16:43:28;12.00;84.40